createdAt,value
2018-12-05T00:00:01.335Z,2.50
2018-12-05T00:01:03.818Z,2.55
2018-12-05T00:02:06.313Z,2.95
2018-12-05T00:03:09.088Z,2.95
2018-12-05T00:04:11.546Z,3.05
2018-12-05T00:05:14.096Z,3.58
2018-12-05T00:06:16.543Z,2.98
2018-12-05T00:07:18.983Z,3.35
2018-12-05T00:08:21.424Z,2.47
2018-12-05T00:09:23.858Z,3.35
2018-12-05T00:10:26.284Z,2.83
2018-12-05T00:11:28.776Z,3.15
2018-12-05T00:12:31.221Z,2.90
2018-12-05T00:13:33.686Z,3.40
2018-12-05T00:14:36.235Z,3.10
2018-12-05T00:15:38.671Z,3.45
2018-12-05T00:16:41.128Z,2.85
2018-12-05T00:17:43.563Z,2.72
2018-12-05T00:18:46.020Z,3.20
2018-12-05T00:19:48.451Z,3.72
2018-12-05T00:20:50.900Z,4.05
2018-12-05T00:21:53.364Z,3.30
2018-12-05T00:22:55.807Z,2.80
2018-12-05T00:23:58.242Z,3.25
2018-12-05T00:25:00.689Z,3.33
2018-12-05T00:26:03.200Z,3.75
2018-12-05T00:27:05.660Z,3.47
2018-12-05T00:28:08.097Z,3.75
2018-12-05T00:29:10.542Z,3.33
2018-12-05T00:30:12.972Z,4.10
2018-12-05T00:31:15.411Z,4.58
2018-12-05T00:32:17.867Z,3.80
2018-12-05T00:33:20.302Z,3.50
2018-12-05T00:34:22.738Z,3.40
2018-12-05T00:35:25.167Z,3.62
2018-12-05T00:36:27.608Z,3.27
2018-12-05T00:37:30.063Z,2.85
2018-12-05T00:38:32.499Z,3.00
2018-12-05T00:39:40.875Z,3.65
2018-12-05T00:40:43.314Z,3.37
2018-12-05T00:41:45.745Z,3.75
2018-12-05T00:42:48.207Z,3.90
2018-12-05T00:43:50.635Z,3.35
2018-12-05T00:44:53.068Z,3.20
2018-12-05T00:45:55.500Z,3.58
2018-12-05T00:46:58.098Z,4.20
2018-12-05T00:48:00.579Z,3.30
2018-12-05T00:49:03.017Z,3.75
2018-12-05T00:50:05.717Z,3.45
2018-12-05T00:51:08.167Z,3.02
2018-12-05T00:52:10.591Z,4.20
2018-12-05T00:53:13.035Z,3.17
2018-12-05T00:54:15.465Z,3.67
2018-12-05T00:55:18.020Z,3.80
2018-12-05T00:56:20.456Z,3.77
2018-12-05T00:57:22.897Z,3.62
2018-12-05T00:58:25.347Z,3.33
2018-12-05T00:59:27.771Z,3.60
2018-12-05T01:00:30.209Z,4.33
2018-12-05T01:01:32.794Z,4.00
2018-12-05T01:02:35.323Z,3.70
2018-12-05T01:03:37.771Z,3.62
2018-12-05T01:04:40.216Z,3.62
2018-12-05T01:05:42.652Z,3.75
2018-12-05T01:06:45.075Z,3.87
2018-12-05T01:07:47.519Z,3.83
2018-12-05T01:08:49.964Z,4.25
2018-12-05T01:09:52.393Z,4.10
2018-12-05T01:10:54.821Z,3.85
2018-12-05T01:11:57.339Z,4.25
2018-12-05T01:12:59.804Z,4.12
2018-12-05T01:14:02.239Z,3.35
2018-12-05T01:15:05.163Z,3.37
2018-12-05T01:16:07.599Z,4.10
2018-12-05T01:17:10.029Z,5.00
2018-12-05T01:18:12.498Z,5.00
2018-12-05T01:19:14.951Z,5.17
2018-12-05T01:20:17.390Z,4.20
2018-12-05T01:21:19.829Z,4.30
2018-12-05T01:22:22.263Z,4.45
2018-12-05T01:23:24.713Z,4.20
2018-12-05T01:24:27.140Z,4.20
2018-12-05T01:25:29.564Z,4.75
2018-12-05T01:26:31.995Z,5.25
2018-12-05T01:27:34.434Z,5.17
2018-12-05T01:28:36.884Z,4.10
2018-12-05T01:29:39.324Z,4.80
2018-12-05T01:30:41.759Z,4.78
2018-12-05T01:31:44.209Z,4.75
2018-12-05T01:32:46.635Z,4.08
2018-12-05T01:33:49.080Z,4.87
2018-12-05T01:34:51.516Z,4.25
2018-12-05T01:35:53.943Z,4.87
2018-12-05T01:36:56.380Z,5.15
2018-12-05T01:37:58.906Z,5.08
2018-12-05T01:39:01.347Z,4.60
2018-12-05T01:40:04.660Z,5.45
2018-12-05T01:41:07.091Z,5.72
2018-12-05T01:42:09.536Z,4.97
2018-12-05T01:43:11.975Z,5.33
2018-12-05T01:44:14.425Z,5.60
2018-12-05T01:45:16.888Z,5.30
2018-12-05T01:46:19.337Z,5.25
2018-12-05T01:47:21.776Z,6.30
2018-12-05T01:48:24.220Z,4.67
2018-12-05T01:49:27.139Z,6.37
2018-12-05T01:50:29.584Z,5.45
2018-12-05T01:51:32.030Z,5.33
2018-12-05T01:52:34.479Z,5.25
2018-12-05T01:53:36.904Z,5.00
2018-12-05T01:54:39.368Z,5.80
2018-12-05T01:55:41.900Z,4.60
2018-12-05T01:56:44.337Z,4.78
2018-12-05T01:57:46.767Z,5.85
2018-12-05T01:58:49.201Z,5.30
2018-12-05T01:59:51.656Z,5.35
2018-12-05T02:00:54.093Z,4.85
2018-12-05T02:01:56.530Z,5.25
2018-12-05T02:02:58.977Z,5.47
2018-12-05T02:04:01.403Z,5.15
2018-12-05T02:05:04.040Z,5.72
2018-12-05T02:06:06.472Z,5.00
2018-12-05T02:07:08.904Z,5.47
2018-12-05T02:08:11.349Z,5.20
2018-12-05T02:09:13.791Z,5.15
2018-12-05T02:10:16.240Z,5.53
2018-12-05T02:11:18.808Z,5.10
2018-12-05T02:12:21.327Z,5.33
2018-12-05T02:13:23.760Z,5.70
2018-12-05T02:14:26.223Z,5.80
2018-12-05T02:15:28.683Z,6.83
2018-12-05T02:16:31.142Z,6.87
2018-12-05T02:17:33.580Z,6.40
2018-12-05T02:18:36.103Z,6.05
2018-12-05T02:19:38.566Z,6.87
2018-12-05T02:20:41.029Z,6.53
2018-12-05T02:21:43.471Z,6.40
2018-12-05T02:22:45.997Z,7.08
2018-12-05T02:23:48.428Z,6.80
2018-12-05T02:24:50.880Z,8.03
2018-12-05T02:25:53.347Z,7.42
2018-12-05T02:26:55.785Z,6.97
2018-12-05T02:27:58.244Z,7.42
2018-12-05T02:29:00.677Z,7.85
2018-12-05T02:30:03.126Z,8.50
2018-12-05T02:31:05.588Z,7.97
2018-12-05T02:32:08.095Z,8.68
2018-12-05T02:33:10.514Z,8.98
2018-12-05T02:34:12.962Z,8.20
2018-12-05T02:35:15.419Z,7.83
2018-12-05T02:36:17.856Z,7.03
2018-12-05T02:37:20.297Z,6.97
2018-12-05T02:38:22.733Z,9.00
2018-12-05T02:39:25.179Z,7.78
2018-12-05T02:40:27.649Z,7.83
2018-12-05T02:41:30.101Z,7.58
2018-12-05T02:42:32.540Z,7.00
2018-12-05T02:43:34.989Z,8.33
2018-12-05T02:44:37.511Z,8.98
2018-12-05T02:45:39.961Z,7.53
2018-12-05T02:46:42.403Z,7.30
2018-12-05T02:47:44.845Z,9.00
2018-12-05T02:48:47.323Z,8.48
2018-12-05T02:49:49.760Z,9.10
2018-12-05T02:50:52.205Z,8.80
2018-12-05T02:51:54.651Z,8.30
2018-12-05T02:52:57.090Z,9.13
2018-12-05T02:53:59.528Z,9.13
2018-12-05T02:55:02.003Z,9.90
2018-12-05T02:56:04.653Z,8.40
2018-12-05T02:57:07.093Z,8.83
2018-12-05T02:58:09.531Z,10.25
2018-12-05T02:59:11.976Z,8.80
2018-12-05T03:00:14.427Z,9.73
2018-12-05T03:01:16.868Z,9.78
2018-12-05T03:02:19.306Z,9.73
2018-12-05T03:03:21.740Z,9.15
2018-12-05T03:04:24.170Z,8.88
2018-12-05T03:05:26.661Z,9.65
2018-12-05T03:06:29.124Z,9.53
2018-12-05T03:07:31.572Z,9.28
2018-12-05T03:08:34.009Z,10.78
2018-12-05T03:09:36.453Z,10.15
2018-12-05T03:10:38.931Z,10.65
2018-12-05T03:11:41.363Z,10.60
2018-12-05T03:12:43.809Z,10.82
2018-12-05T03:13:46.263Z,10.03
2018-12-05T03:14:48.720Z,9.93
2018-12-05T03:15:51.189Z,9.98
2018-12-05T03:16:53.652Z,10.78
2018-12-05T03:17:56.102Z,10.18
2018-12-05T03:18:58.588Z,10.30
2018-12-05T03:20:01.033Z,11.00
2018-12-05T03:21:03.500Z,10.58
2018-12-05T03:22:05.951Z,10.25
2018-12-05T03:23:08.389Z,9.95
2018-12-05T03:24:10.816Z,10.90
2018-12-05T03:25:13.259Z,14.07
2018-12-05T03:26:15.715Z,17.77
2018-12-05T03:27:18.187Z,17.37
2018-12-05T03:28:20.648Z,13.53
2018-12-05T03:29:23.103Z,14.53
2018-12-05T03:30:25.565Z,13.75
2018-12-05T03:31:28.041Z,12.70
2018-12-05T03:32:30.506Z,10.65
2018-12-05T03:33:33.061Z,10.75
2018-12-05T03:34:35.520Z,11.28
2018-12-05T03:35:38.984Z,10.38
2018-12-05T03:36:41.587Z,11.33
2018-12-05T03:37:44.049Z,10.63
2018-12-05T03:38:46.491Z,11.65
2018-12-05T03:39:48.946Z,10.78
2018-12-05T03:40:51.383Z,11.00
2018-12-05T03:41:53.927Z,9.80
2018-12-05T03:42:56.368Z,9.00
2018-12-05T03:43:58.824Z,9.23
2018-12-05T03:45:01.274Z,10.25
2018-12-05T03:46:03.730Z,10.30
2018-12-05T03:47:06.293Z,10.40
2018-12-05T03:48:08.728Z,10.50
2018-12-05T03:49:11.165Z,10.18
2018-12-05T03:50:13.604Z,9.88
2018-12-05T03:51:16.036Z,15.48
2018-12-05T03:52:18.497Z,11.68
2018-12-05T03:53:20.944Z,12.10
2018-12-05T03:54:23.391Z,12.37
2018-12-05T03:55:25.836Z,20.70
2018-12-05T03:56:28.292Z,11.75
2018-12-05T03:57:30.765Z,10.40
2018-12-05T03:58:33.229Z,9.43
2018-12-05T03:59:35.671Z,10.40
2018-12-05T04:00:38.108Z,11.22
2018-12-05T04:01:40.554Z,10.40
2018-12-05T04:02:43.038Z,11.95
2018-12-05T04:03:45.481Z,11.08
2018-12-05T04:04:47.924Z,10.43
2018-12-05T04:05:50.382Z,11.10
2018-12-05T04:06:52.821Z,11.80
2018-12-05T04:07:55.278Z,10.48
2018-12-05T04:08:57.776Z,11.12
2018-12-05T04:10:00.220Z,11.68
2018-12-05T04:11:02.660Z,11.68
2018-12-05T04:12:05.115Z,12.03
2018-12-05T04:13:07.587Z,13.25
2018-12-05T04:14:10.049Z,13.60
2018-12-05T04:15:12.615Z,15.25
2018-12-05T04:16:15.068Z,14.73
2018-12-05T04:17:17.511Z,14.53
2018-12-05T04:18:19.965Z,13.18
2018-12-05T04:19:22.420Z,11.35
2018-12-05T04:20:24.866Z,11.38
2018-12-05T04:21:27.309Z,11.20
2018-12-05T04:22:29.751Z,11.83
2018-12-05T04:23:32.274Z,12.05
2018-12-05T04:24:34.728Z,12.58
2018-12-05T04:25:37.179Z,11.50
2018-12-05T04:26:39.626Z,11.08
2018-12-05T04:27:42.076Z,11.28
2018-12-05T04:28:44.545Z,11.05
2018-12-05T04:29:47.003Z,10.20
2018-12-05T04:30:49.439Z,10.05
2018-12-05T04:31:51.878Z,11.63
2018-12-05T04:32:54.316Z,11.40
2018-12-05T04:33:56.841Z,10.40
2018-12-05T04:34:59.322Z,11.25
2018-12-05T04:36:01.764Z,10.82
2018-12-05T04:37:04.209Z,10.98
2018-12-05T04:38:06.660Z,10.90
2018-12-05T04:39:09.305Z,10.40
2018-12-05T04:40:11.768Z,11.73
2018-12-05T04:41:14.204Z,10.80
2018-12-05T04:42:16.660Z,10.93
2018-12-05T04:43:19.096Z,10.10
2018-12-05T04:44:21.547Z,10.23
2018-12-05T04:45:23.993Z,9.93
2018-12-05T04:46:26.424Z,9.75
2018-12-05T04:47:28.871Z,11.38
2018-12-05T04:48:31.308Z,10.68
2018-12-05T04:49:33.753Z,11.65
2018-12-05T04:50:36.206Z,12.23
2018-12-05T04:51:38.649Z,12.20
2018-12-05T04:52:41.095Z,12.20
2018-12-05T04:53:43.539Z,11.73
2018-12-05T04:54:46.000Z,10.80
2018-12-05T04:55:48.440Z,10.93
2018-12-05T04:56:50.885Z,11.15
2018-12-05T04:57:53.317Z,9.60
2018-12-05T04:58:55.755Z,9.93
2018-12-05T04:59:58.211Z,10.58
2018-12-05T05:01:00.658Z,11.43
2018-12-05T05:02:03.569Z,9.75
2018-12-05T05:03:06.013Z,11.18
2018-12-05T05:04:08.459Z,11.22
2018-12-05T05:05:10.907Z,10.28
2018-12-05T05:06:13.343Z,9.90
2018-12-05T05:07:15.786Z,10.48
2018-12-05T05:08:18.229Z,8.95
2018-12-05T05:09:20.673Z,10.40
2018-12-05T05:10:23.136Z,10.00
2018-12-05T05:11:25.587Z,10.63
2018-12-05T05:12:28.039Z,11.57
2018-12-05T05:13:30.487Z,11.45
2018-12-05T05:14:32.928Z,10.48
2018-12-05T05:15:35.384Z,9.05
2018-12-05T05:16:37.825Z,11.33
2018-12-05T05:17:40.272Z,10.60
2018-12-05T05:18:42.703Z,9.10
2018-12-05T05:19:45.140Z,10.43
2018-12-05T05:20:47.587Z,11.20
2018-12-05T05:21:50.029Z,12.15
2018-12-05T05:22:52.459Z,11.50
2018-12-05T05:23:54.899Z,12.55
2018-12-05T05:24:57.331Z,11.60
2018-12-05T05:25:59.795Z,13.35
2018-12-05T05:27:02.252Z,11.90
2018-12-05T05:28:04.776Z,12.20
2018-12-05T05:29:07.237Z,12.05
2018-12-05T05:30:09.774Z,12.80
2018-12-05T05:31:12.235Z,10.85
2018-12-05T05:32:14.768Z,12.50
2018-12-05T05:33:17.210Z,12.25
2018-12-05T05:34:19.654Z,13.93
2018-12-05T05:35:22.105Z,14.25
2018-12-05T05:36:24.562Z,12.58
2018-12-05T05:37:27.021Z,12.60
2018-12-05T05:38:29.477Z,12.82
2018-12-05T05:39:31.916Z,12.37
2018-12-05T05:40:34.380Z,12.13
2018-12-05T05:41:36.887Z,12.85
2018-12-05T05:42:39.340Z,12.07
2018-12-05T05:43:41.776Z,11.97
2018-12-05T05:44:44.235Z,13.30
2018-12-05T05:45:46.927Z,12.40
2018-12-05T05:46:49.420Z,12.78
2018-12-05T05:47:51.880Z,13.05
2018-12-05T05:48:54.324Z,12.33
2018-12-05T05:49:56.771Z,13.18
2018-12-05T05:50:59.267Z,12.98
2018-12-05T05:52:01.732Z,12.55
2018-12-05T05:53:04.179Z,13.22
2018-12-05T05:54:06.627Z,13.03
2018-12-05T05:55:09.167Z,12.47
2018-12-05T05:56:11.616Z,13.38
2018-12-05T05:57:14.080Z,14.10
2018-12-05T05:58:16.540Z,13.80
2018-12-05T05:59:18.984Z,14.80
2018-12-05T06:00:21.428Z,14.90
2018-12-05T06:01:23.865Z,15.20
2018-12-05T06:02:26.320Z,13.93
2018-12-05T06:03:28.765Z,15.18
2018-12-05T06:04:31.203Z,15.50
2018-12-05T06:05:33.641Z,14.95
2018-12-05T06:06:36.087Z,15.88
2018-12-05T06:07:38.551Z,15.32
2018-12-05T06:08:41.006Z,16.25
2018-12-05T06:09:43.451Z,16.85
2018-12-05T06:10:45.914Z,17.55
2018-12-05T06:11:48.357Z,16.35
2018-12-05T06:12:50.815Z,17.15
2018-12-05T06:13:53.279Z,16.02
2018-12-05T06:14:55.722Z,16.35
2018-12-05T06:15:58.168Z,17.52
2018-12-05T06:17:00.608Z,17.12
2018-12-05T06:18:03.066Z,17.10
2018-12-05T06:19:05.613Z,15.53
2018-12-05T06:20:08.141Z,17.55
2018-12-05T06:21:10.583Z,19.07
2018-12-05T06:22:13.028Z,19.10
2018-12-05T06:23:15.488Z,21.17
2018-12-05T06:24:17.943Z,21.60
2018-12-05T06:25:20.390Z,21.62
2018-12-05T06:26:22.888Z,19.85
2018-12-05T06:27:25.338Z,20.57
2018-12-05T06:28:27.795Z,20.40
2018-12-05T06:29:30.266Z,18.37
2018-12-05T06:30:32.719Z,18.30
2018-12-05T06:31:35.152Z,19.48
2018-12-05T06:32:37.588Z,18.92
2018-12-05T06:33:40.052Z,18.20
2018-12-05T06:34:42.487Z,18.48
2018-12-05T06:35:44.944Z,18.27
2018-12-05T06:36:47.379Z,18.80
2018-12-05T06:37:49.828Z,20.12
2018-12-05T06:38:52.297Z,19.75
2018-12-05T06:39:54.756Z,19.55
2018-12-05T06:40:57.187Z,19.45
2018-12-05T06:41:59.623Z,19.73
2018-12-05T06:43:02.059Z,19.30
2018-12-05T06:44:04.527Z,19.10
2018-12-05T06:45:07.081Z,21.00
2018-12-05T06:46:09.519Z,18.48
2018-12-05T06:47:11.968Z,19.90
2018-12-05T06:48:14.412Z,18.70
2018-12-05T06:49:16.964Z,18.40
2018-12-05T06:50:19.400Z,17.45
2018-12-05T06:51:21.850Z,19.73
2018-12-05T06:52:24.308Z,19.10
2018-12-05T06:53:26.739Z,17.25
2018-12-05T06:54:32.028Z,18.82
2018-12-05T06:55:39.112Z,19.45
2018-12-05T06:56:39.292Z,20.68
2018-12-05T06:57:41.743Z,18.15
2018-12-05T06:58:44.187Z,19.45
2018-12-05T06:59:46.651Z,19.10
2018-12-05T07:00:49.112Z,19.45
2018-12-05T07:01:51.556Z,19.57
2018-12-05T07:02:54.002Z,19.17
2018-12-05T07:03:56.459Z,18.45
2018-12-05T07:04:58.923Z,19.55
2018-12-05T07:06:01.387Z,19.12
2018-12-05T07:07:03.930Z,20.05
2018-12-05T07:08:06.370Z,19.37
2018-12-05T07:09:08.860Z,20.08
2018-12-05T07:10:11.434Z,19.95
2018-12-05T07:11:13.952Z,18.75
2018-12-05T07:12:16.431Z,18.87
2018-12-05T07:13:18.878Z,17.23
2018-12-05T07:14:21.309Z,17.70
2018-12-05T07:15:23.776Z,17.00
2018-12-05T07:16:26.245Z,18.42
2018-12-05T07:17:28.691Z,18.05
2018-12-05T07:18:31.174Z,17.55
2018-12-05T07:19:33.621Z,18.23
2018-12-05T07:20:36.107Z,19.45
2018-12-05T07:21:38.754Z,18.10
2018-12-05T07:22:41.199Z,17.42
2018-12-05T07:23:43.631Z,17.85
2018-12-05T07:24:46.075Z,19.07
2018-12-05T07:25:48.552Z,17.92
2018-12-05T07:26:51.033Z,18.98
2018-12-05T07:27:53.481Z,17.12
2018-12-05T07:28:55.920Z,18.57
2018-12-05T07:29:58.368Z,16.25
2018-12-05T07:31:00.813Z,16.80
2018-12-05T07:32:03.259Z,16.77
2018-12-05T07:33:05.747Z,18.67
2018-12-05T07:34:08.201Z,17.20
2018-12-05T07:35:10.657Z,17.10
2018-12-05T07:36:13.205Z,17.10
2018-12-05T07:37:16.645Z,16.48
2018-12-05T07:38:19.556Z,15.98
2018-12-05T07:39:23.395Z,15.00
2018-12-05T07:40:26.520Z,16.67
2018-12-05T07:41:29.035Z,15.68
2018-12-05T07:42:31.541Z,15.45
2018-12-05T07:43:33.979Z,16.10
2018-12-05T07:44:36.513Z,18.07
2018-12-05T07:45:39.045Z,16.35
2018-12-05T07:46:41.620Z,19.10
2018-12-05T07:47:44.123Z,17.37
2018-12-05T07:48:46.588Z,17.48
2018-12-05T07:49:49.240Z,16.45
2018-12-05T07:50:51.747Z,18.92
2018-12-05T07:51:54.224Z,17.10
2018-12-05T07:52:56.946Z,19.32
2018-12-05T07:54:00.040Z,16.97
2018-12-05T07:55:02.564Z,19.12
2018-12-05T07:56:05.047Z,20.30
2018-12-05T07:57:07.649Z,19.55
2018-12-05T07:58:10.194Z,19.27
2018-12-05T07:59:14.664Z,16.75
2018-12-05T08:00:17.214Z,17.55
2018-12-05T08:01:20.662Z,17.52
2018-12-05T08:02:23.329Z,22.05
2018-12-05T08:03:25.887Z,19.52
2018-12-05T08:04:29.299Z,19.55
2018-12-05T08:05:31.752Z,17.82
2018-12-05T08:06:34.200Z,19.80
2018-12-05T08:07:36.821Z,17.82
2018-12-05T08:08:39.452Z,17.52
2018-12-05T08:09:42.108Z,17.50
2018-12-05T08:10:44.591Z,16.20
2018-12-05T08:11:47.078Z,17.82
2018-12-05T08:12:49.580Z,18.00
2018-12-05T08:13:52.045Z,17.20
2018-12-05T08:14:54.631Z,18.02
2018-12-05T08:15:57.162Z,17.20
2018-12-05T08:16:59.623Z,17.35
2018-12-05T08:18:02.085Z,16.67
2018-12-05T08:19:04.660Z,16.55
2018-12-05T08:20:07.280Z,16.67
2018-12-05T08:21:09.714Z,16.80
2018-12-05T08:22:12.154Z,16.52
2018-12-05T08:23:14.643Z,16.42
2018-12-05T08:24:17.191Z,16.82
2018-12-05T08:25:19.655Z,14.63
2018-12-05T08:26:22.104Z,16.60
2018-12-05T08:27:24.568Z,16.35
2018-12-05T08:28:27.076Z,14.15
2018-12-05T08:29:29.535Z,16.52
2018-12-05T08:30:32.004Z,15.98
2018-12-05T08:31:34.455Z,15.75
2018-12-05T08:32:36.936Z,16.70
2018-12-05T08:33:39.441Z,15.65
2018-12-05T08:34:41.907Z,16.42
2018-12-05T08:35:44.377Z,16.15
2018-12-05T08:36:46.892Z,16.48
2018-12-05T08:37:49.369Z,16.87
2018-12-05T08:38:51.852Z,16.17
2018-12-05T08:39:54.333Z,16.05
2018-12-05T08:40:56.869Z,16.60
2018-12-05T08:41:59.336Z,16.27
2018-12-05T08:43:01.772Z,17.32
2018-12-05T08:44:04.297Z,18.67
2018-12-05T08:45:06.876Z,17.67
2018-12-05T08:46:09.412Z,16.97
2018-12-05T08:47:11.995Z,17.20
2018-12-05T08:48:14.463Z,16.05
2018-12-05T08:49:16.951Z,15.83
2018-12-05T08:50:19.475Z,16.67
2018-12-05T08:51:21.922Z,15.72
2018-12-05T08:52:24.402Z,15.55
2018-12-05T08:53:26.868Z,14.68
2018-12-05T08:54:29.378Z,14.15
2018-12-05T08:55:31.884Z,13.20
2018-12-05T08:56:34.331Z,15.20
2018-12-05T08:57:36.816Z,15.23
2018-12-05T08:58:39.295Z,14.93
2018-12-05T08:59:41.789Z,14.28
2018-12-05T09:00:44.228Z,15.32
2018-12-05T09:01:46.672Z,15.80
2018-12-05T09:02:49.139Z,13.95
2018-12-05T09:03:51.687Z,14.35
2018-12-05T09:04:54.139Z,14.53
2018-12-05T09:05:56.633Z,14.33
2018-12-05T09:06:59.147Z,14.53
2018-12-05T09:08:01.588Z,14.00
2018-12-05T09:09:06.137Z,14.73
2018-12-05T09:10:08.700Z,15.55
2018-12-05T09:11:11.173Z,18.20
2018-12-05T09:12:13.617Z,13.62
2018-12-05T09:13:16.072Z,14.33
2018-12-05T09:14:18.512Z,12.30
2018-12-05T09:15:21.010Z,12.20
2018-12-05T09:16:23.471Z,12.63
2018-12-05T09:17:25.908Z,13.35
2018-12-05T09:18:28.341Z,13.38
2018-12-05T09:19:30.892Z,12.43
2018-12-05T09:20:33.351Z,14.43
2018-12-05T09:21:35.823Z,12.13
2018-12-05T09:22:41.425Z,13.18
2018-12-05T09:23:42.739Z,12.68
2018-12-05T09:24:45.196Z,14.38
2018-12-05T09:25:47.659Z,13.55
2018-12-05T09:26:50.113Z,15.05
2018-12-05T09:27:52.548Z,12.73
2018-12-05T09:28:57.321Z,12.18
2018-12-05T09:29:59.456Z,11.70
2018-12-05T09:31:01.945Z,11.90
2018-12-05T09:32:04.409Z,12.37
2018-12-05T09:33:06.881Z,11.50
2018-12-05T09:34:09.315Z,13.10
2018-12-05T09:35:11.757Z,11.97
2018-12-05T09:36:14.244Z,12.82
2018-12-05T09:37:16.704Z,12.80
2018-12-05T09:38:19.149Z,12.55
2018-12-05T09:39:21.603Z,12.63
2018-12-05T09:40:24.046Z,12.20
2018-12-05T09:41:26.509Z,13.10
2018-12-05T09:42:28.952Z,13.25
2018-12-05T09:43:31.391Z,12.95
2018-12-05T09:44:33.832Z,12.78
2018-12-05T09:45:36.361Z,17.48
2018-12-05T09:46:38.820Z,16.27
2018-12-05T09:47:41.268Z,12.47
2018-12-05T09:48:43.715Z,13.80
2018-12-05T09:49:46.161Z,12.60
2018-12-05T09:50:48.629Z,11.88
2018-12-05T09:51:51.092Z,12.98
2018-12-05T09:52:53.555Z,13.68
2018-12-05T09:53:56.009Z,13.20
2018-12-05T09:54:58.473Z,13.00
2018-12-05T09:56:00.924Z,13.20
2018-12-05T09:57:03.416Z,12.53
2018-12-05T09:58:05.881Z,12.63
2018-12-05T09:59:08.345Z,12.55
2018-12-05T10:00:10.993Z,12.45
2018-12-05T10:01:13.451Z,11.60
2018-12-05T10:02:15.946Z,12.37
2018-12-05T10:03:18.444Z,12.50
2018-12-05T10:04:20.879Z,12.50
2018-12-05T10:05:23.343Z,12.03
2018-12-05T10:06:25.791Z,13.30
2018-12-05T10:07:29.195Z,12.23
2018-12-05T10:08:31.684Z,12.33
2018-12-05T10:09:34.198Z,12.75
2018-12-05T10:10:36.678Z,14.15
2018-12-05T10:11:39.195Z,12.28
2018-12-05T10:12:41.926Z,12.35
2018-12-05T10:13:44.621Z,10.40
2018-12-05T10:14:47.072Z,11.10
2018-12-05T10:15:49.514Z,12.13
2018-12-05T10:16:51.984Z,10.93
2018-12-05T10:17:54.436Z,13.43
2018-12-05T10:18:56.903Z,11.08
2018-12-05T10:19:59.364Z,10.55
2018-12-05T10:21:01.859Z,10.78
2018-12-05T10:22:04.386Z,11.97
2018-12-05T10:23:08.035Z,10.43
2018-12-05T10:24:10.676Z,10.95
2018-12-05T10:25:13.193Z,11.12
2018-12-05T10:26:15.658Z,11.63
2018-12-05T10:27:18.108Z,11.28
2018-12-05T10:28:20.570Z,13.60
2018-12-05T10:29:23.074Z,14.28
2018-12-05T10:30:25.665Z,12.20
2018-12-05T10:31:28.164Z,11.48
2018-12-05T10:32:30.647Z,12.50
2018-12-05T10:33:33.108Z,11.03
2018-12-05T10:34:35.613Z,10.28
2018-12-05T10:35:38.064Z,11.03
2018-12-05T10:36:40.549Z,20.88
2018-12-05T10:37:42.983Z,12.80
2018-12-05T10:38:45.520Z,11.93
2018-12-05T10:39:48.030Z,10.82
2018-12-05T10:40:50.548Z,11.45
2018-12-05T10:41:53.002Z,11.25
2018-12-05T10:42:55.444Z,9.85
2018-12-05T10:43:57.906Z,11.65
2018-12-05T10:45:00.411Z,10.55
2018-12-05T10:46:02.868Z,11.97
2018-12-05T10:47:05.609Z,10.85
2018-12-05T10:48:08.180Z,11.08
2018-12-05T10:49:10.663Z,10.78
2018-12-05T10:50:13.149Z,11.18
2018-12-05T10:51:15.606Z,10.65
2018-12-05T10:52:18.053Z,10.45
2018-12-05T10:53:20.593Z,11.05
2018-12-05T10:54:23.063Z,11.80
2018-12-05T10:55:25.517Z,10.53
2018-12-05T10:56:28.190Z,10.08
2018-12-05T10:57:30.619Z,10.03
2018-12-05T10:58:33.070Z,11.03
2018-12-05T10:59:35.547Z,10.82
2018-12-05T11:00:43.592Z,11.10
2018-12-05T11:01:51.690Z,9.98
2018-12-05T11:04:35.152Z,10.95
2018-12-05T11:05:43.355Z,10.23
2018-12-05T11:06:51.473Z,10.20
2018-12-05T11:07:59.699Z,11.90
2018-12-05T11:09:07.945Z,11.10
2018-12-05T11:10:16.065Z,11.40
2018-12-05T11:11:24.172Z,10.37
2018-12-05T11:14:11.899Z,11.03
2018-12-05T11:15:19.948Z,10.40
2018-12-05T11:16:27.971Z,10.32
2018-12-05T11:17:36.133Z,10.80
2018-12-05T11:18:44.247Z,10.98
2018-12-05T11:19:52.378Z,9.88
2018-12-05T11:21:00.576Z,11.08
2018-12-05T11:22:10.111Z,10.98
2018-12-05T11:24:55.545Z,10.50
2018-12-05T11:26:00.047Z,11.38
2018-12-05T11:27:02.495Z,11.83
2018-12-05T11:28:04.943Z,10.40
2018-12-05T11:29:07.390Z,10.95
2018-12-05T11:30:09.916Z,10.50
2018-12-05T11:31:12.420Z,10.45
2018-12-05T11:32:14.883Z,11.48
2018-12-05T11:33:17.355Z,11.05
2018-12-05T11:34:19.814Z,11.18
2018-12-05T11:35:22.273Z,11.65
2018-12-05T11:36:24.818Z,11.18
2018-12-05T11:37:27.298Z,11.95
2018-12-05T11:38:29.750Z,11.95
2018-12-05T11:39:32.252Z,11.88
2018-12-05T11:40:34.780Z,16.40
2018-12-05T11:41:37.299Z,14.18
2018-12-05T11:42:39.861Z,13.95
2018-12-05T11:43:42.361Z,12.90
2018-12-05T11:44:44.803Z,11.70
2018-12-05T11:45:47.307Z,11.80
2018-12-05T11:46:49.785Z,11.53
2018-12-05T11:47:52.390Z,11.55
2018-12-05T11:48:54.837Z,10.32
2018-12-05T11:49:57.309Z,10.93
2018-12-05T11:50:59.765Z,11.93
2018-12-05T11:52:02.280Z,11.43
2018-12-05T11:53:04.747Z,11.65
2018-12-05T11:54:07.480Z,11.30
2018-12-05T11:55:09.932Z,11.50
2018-12-05T11:56:12.390Z,11.57
2018-12-05T11:57:14.880Z,11.70
2018-12-05T11:58:17.343Z,11.33
2018-12-05T11:59:19.793Z,11.65
2018-12-05T12:00:22.289Z,11.33
2018-12-05T12:01:24.732Z,12.33
2018-12-05T12:02:27.234Z,12.45
2018-12-05T12:03:29.677Z,11.78
2018-12-05T12:04:32.589Z,12.45
2018-12-05T12:05:35.051Z,11.63
2018-12-05T12:06:37.598Z,11.80
2018-12-05T12:07:40.074Z,11.53
2018-12-05T12:08:42.614Z,11.63
2018-12-05T12:09:45.052Z,10.98
2018-12-05T12:10:47.500Z,11.70
2018-12-05T12:11:49.966Z,10.68
2018-12-05T12:12:58.139Z,10.23
2018-12-05T12:14:00.599Z,10.70
2018-12-05T12:15:03.147Z,11.80
2018-12-05T12:16:05.649Z,11.95
2018-12-05T12:17:08.142Z,11.50
2018-12-05T12:18:10.610Z,11.00
2018-12-05T12:19:13.061Z,12.63
2018-12-05T12:20:15.504Z,11.90
2018-12-05T12:21:18.001Z,13.00
2018-12-05T12:22:20.571Z,12.28
2018-12-05T12:23:23.125Z,11.70
2018-12-05T12:24:25.785Z,12.07
2018-12-05T12:25:28.260Z,11.95
2018-12-05T12:26:33.411Z,11.78
2018-12-05T12:27:35.347Z,11.73
2018-12-05T12:28:37.839Z,11.53
2018-12-05T12:29:40.301Z,12.18
2018-12-05T12:30:42.929Z,12.30
2018-12-05T12:31:45.424Z,12.35
2018-12-05T12:32:47.994Z,12.88
2018-12-05T12:33:50.610Z,12.90
2018-12-05T12:34:53.093Z,13.68
2018-12-05T12:35:55.563Z,11.50
2018-12-05T12:36:58.052Z,11.68
2018-12-05T12:38:00.505Z,12.40
2018-12-05T12:39:03.285Z,12.35
2018-12-05T12:40:05.790Z,13.10
2018-12-05T12:41:08.468Z,13.78
2018-12-05T12:42:10.964Z,13.43
2018-12-05T12:43:13.575Z,13.80
2018-12-05T12:44:16.482Z,14.60
2018-12-05T12:45:20.098Z,14.50
2018-12-05T12:46:22.785Z,12.80
2018-12-05T12:47:25.321Z,12.10
2018-12-05T12:48:27.861Z,13.93
2018-12-05T12:49:30.851Z,14.00
2018-12-05T12:50:33.356Z,13.48
2018-12-05T12:51:35.860Z,14.33
2018-12-05T12:52:38.312Z,13.72
2018-12-05T12:53:40.774Z,11.48
2018-12-05T12:54:43.276Z,12.65
2018-12-05T12:55:45.941Z,12.55
2018-12-05T12:56:48.544Z,12.85
2018-12-05T12:57:51.030Z,13.03
2018-12-05T12:58:53.473Z,12.90
2018-12-05T12:59:55.993Z,13.53
2018-12-05T13:00:58.754Z,14.18
2018-12-05T13:02:01.307Z,12.75
2018-12-05T13:03:03.920Z,13.80
2018-12-05T13:04:06.368Z,11.57
2018-12-05T13:05:08.862Z,13.50
2018-12-05T13:06:11.376Z,13.68
2018-12-05T13:07:13.852Z,13.30
2018-12-05T13:08:16.585Z,13.15
2018-12-05T13:09:19.099Z,13.60
2018-12-05T13:10:21.548Z,12.05
2018-12-05T13:11:24.025Z,12.80
2018-12-05T13:12:27.791Z,13.35
2018-12-05T13:13:30.297Z,11.73
2018-12-05T13:14:32.784Z,12.93
2018-12-05T13:15:35.302Z,14.93
2018-12-05T13:16:37.806Z,15.48
2018-12-05T13:17:40.317Z,14.45
2018-12-05T13:18:42.779Z,12.93
2018-12-05T13:19:45.975Z,12.45
2018-12-05T13:20:48.487Z,12.63
2018-12-05T13:21:51.028Z,13.85
2018-12-05T13:22:53.783Z,13.62
2018-12-05T13:23:57.112Z,13.60
2018-12-05T13:24:59.630Z,17.00
2018-12-05T13:26:02.085Z,15.13
2018-12-05T13:27:04.646Z,15.50
2018-12-05T13:28:07.108Z,16.93
2018-12-05T13:29:10.675Z,16.20
2018-12-05T13:30:13.481Z,14.10
2018-12-05T13:31:17.065Z,18.37
2018-12-05T13:32:20.480Z,14.23
2018-12-05T13:33:23.778Z,11.93
2018-12-05T13:34:27.397Z,12.27
2018-12-05T13:35:30.252Z,10.70
2018-12-05T13:36:33.341Z,12.40
2018-12-05T13:37:35.959Z,11.37
2018-12-05T13:38:38.531Z,12.30